Terminal Aerodrome Forecast
Issued by NWS

Home | Current Version | Previous Version | Text Only | Print | Product List | Glossary On
Versions: 1 2 3 4 5 6 7 8 9 10 11 12 13 14
000
FTUS42 KMLB 200500
TAFFPR
TAF
KFPR 200530Z 2006/2106 00000KT P6SM SCT035 BKN045
      TEMPO 2008/2012 5SM BR FEW250
     FM201500 20006KT P6SM FEW100 SCT250
     FM201900 13008KT P6SM SCT100 BKN250=

USA.gov is the U.S. government's official web portal to all federal, state and local government web resources and services.